Toccoa Falls, Georgia
Current Conditions -  °F | °C
As of 1:15 AM on Monday 22 Dec 2014 (Local Time) from KTOC Reporting Station
Overcast Overcast  
Wind Chill: 42°   Ceiling: 1600
Heat Index: 45°   Visibility: 10mi
Dew Point: 41°   Wind: 6mph
Humidity: 87%   Direction: 50°NE
Pressure: 30.12"   Gusts: NA
Location:  34.5944°N, 83.3575°W
Report Text: KTOC 220615Z AUTO 05005KT 10SM OVC016 07/05 A3012 RMK AO2 T00710051
Loading
Personal Weather Stations






























Interactive Weather Map New forecast layout! Learn more

10-Day Weather Forecast

Advertisements
Track Severe Weather on mobile